Time;durP1;ratioP1;P1;durP2;ratioP2;P2;SDS_P1;SDS_P2;PMS_P1;PMS_P2;Temp;Humidity;BMP_temperature;BMP_pressure;BME280_temperature;BME280_humidity;BME280_pressure;Samples;Min_cycle;Max_cycle;Signal;HPM_P1;HPM_P2
2024/03/11 00:00:57;;;;;;;34.65;23.20;;;;;;;;;;5072632;28;20052;-74
2024/03/11 00:03:24;;;;;;;36.42;23.13;;;;;;;;;;5064398;28;20056;-74
2024/03/11 00:05:52;;;;;;;33.28;22.95;;;;;;;;;;5068307;28;20452;-75
2024/03/11 00:08:21;;;;;;;35.65;23.75;;;;;;;;;;5048445;28;20045;-73
2024/03/11 00:10:55;;;;;;;35.78;22.25;;;;;;;;;;5053645;28;20139;-73
2024/03/11 00:13:22;;;;;;;37.85;24.30;;;;;;;;;;5038183;28;20470;-71
2024/03/11 00:15:51;;;;;;;33.72;23.35;;;;;;;;;;5050069;28;20045;-71
2024/03/11 00:18:18;;;;;;;34.53;23.10;;;;;;;;;;5059532;28;20568;-72
2024/03/11 00:20:46;;;;;;;33.15;23.48;;;;;;;;;;5060789;28;20121;-71
2024/03/11 00:23:13;;;;;;;32.63;23.08;;;;;;;;;;5059632;28;20476;-71
2024/03/11 00:25:40;;;;;;;41.35;25.90;;;;;;;;;;5057100;28;20416;-76
2024/03/11 00:28:08;;;;;;;34.67;23.23;;;;;;;;;;5067861;28;20114;-76
2024/03/11 00:30:35;;;;;;;35.30;23.17;;;;;;;;;;5063003;28;20037;-76
2024/03/11 00:33:02;;;;;;;34.25;23.50;;;;;;;;;;5069561;28;20056;-75
2024/03/11 00:35:29;;;;;;;35.03;23.60;;;;;;;;;;5082824;28;20049;-76
2024/03/11 00:37:56;;;;;;;34.03;24.02;;;;;;;;;;5058674;28;20771;-74
2024/03/11 00:40:25;;;;;;;33.92;23.42;;;;;;;;;;5057590;28;20148;-75
2024/03/11 00:42:51;;;;;;;35.45;23.15;;;;;;;;;;5061695;28;20056;-73
2024/03/11 00:45:18;;;;;;;37.75;23.50;;;;;;;;;;5067238;28;20055;-75
2024/03/11 00:47:45;;;;;;;32.70;23.13;;;;;;;;;;5060248;28;20131;-73
2024/03/11 00:50:12;;;;;;;35.05;23.85;;;;;;;;;;5064212;28;20044;-76
2024/03/11 00:52:41;;;;;;;34.80;23.40;;;;;;;;;;5078999;28;20049;-73
2024/03/11 00:55:09;;;;;;;35.85;23.08;;;;;;;;;;5056185;28;20076;-73
2024/03/11 00:57:36;;;;;;;35.72;23.88;;;;;;;;;;5061168;28;20652;-74
2024/03/11 01:00:04;;;;;;;37.80;23.00;;;;;;;;;;5052643;28;20044;-74
2024/03/11 01:02:32;;;;;;;36.80;24.25;;;;;;;;;;5067116;28;20056;-75
2024/03/11 01:04:59;;;;;;;36.38;24.30;;;;;;;;;;5061381;28;20060;-73
2024/03/11 01:07:25;;;;;;;37.67;24.70;;;;;;;;;;5064380;28;20061;-75
2024/03/11 01:10:09;;;;;;;35.80;23.17;;;;;;;;;;5062997;28;20051;-75
2024/03/11 01:12:36;;;;;;;37.10;25.02;;;;;;;;;;5063744;28;20401;-73
2024/03/11 01:15:02;;;;;;;36.72;24.52;;;;;;;;;;5068642;28;20056;-73
2024/03/11 01:17:29;;;;;;;35.53;23.77;;;;;;;;;;5060787;28;20048;-75
2024/03/11 01:19:55;;;;;;;34.75;22.45;;;;;;;;;;5097957;28;20051;-73
2024/03/11 01:22:22;;;;;;;34.00;22.60;;;;;;;;;;5049750;28;20052;-73
2024/03/11 01:24:48;;;;;;;35.67;23.95;;;;;;;;;;5075187;28;20461;-74
2024/03/11 01:27:29;;;;;;;36.30;23.70;;;;;;;;;;5043160;28;20512;-74
2024/03/11 01:30:03;;;;;;;37.75;24.45;;;;;;;;;;5081983;28;20044;-73
2024/03/11 01:32:30;;;;;;;40.03;25.07;;;;;;;;;;5069135;28;20107;-75
2024/03/11 01:34:58;;;;;;;36.03;24.52;;;;;;;;;;5062871;28;20858;-74
2024/03/11 01:37:25;;;;;;;;;;;;;;;;;;5083537;28;20131;-72
2024/03/11 01:39:52;;;;;;;34.90;23.00;;;;;;;;;;5064829;28;19930;-75
2024/03/11 01:42:19;;;;;;;39.33;24.85;;;;;;;;;;5068751;28;20147;-74
2024/03/11 01:44:47;;;;;;;35.28;23.98;;;;;;;;;;5088405;28;20140;-74
2024/03/11 01:47:14;;;;;;;35.38;23.58;;;;;;;;;;5069366;28;20040;-72
2024/03/11 01:49:43;;;;;;;37.55;24.40;;;;;;;;;;5079857;28;20496;-74
2024/03/11 01:52:11;;;;;;;35.97;24.98;;;;;;;;;;5059000;28;20477;-72
2024/03/11 01:54:41;;;;;;;36.72;24.85;;;;;;;;;;5082287;28;20044;-72
2024/03/11 01:57:08;;;;;;;35.20;24.05;;;;;;;;;;5090017;28;20042;-72
2024/03/11 01:59:37;;;;;;;36.90;24.08;;;;;;;;;;5072461;28;20135;-71
2024/03/11 02:02:07;;;;;;;36.13;23.40;;;;;;;;;;5085650;28;20085;-74
2024/03/11 02:04:34;;;;;;;37.10;24.90;;;;;;;;;;5067608;28;20076;-69
2024/03/11 02:07:01;;;;;;;34.88;23.83;;;;;;;;;;5064355;28;20557;-72
2024/03/11 02:09:28;;;;;;;34.22;23.05;;;;;;;;;;5081112;28;20589;-72
2024/03/11 02:11:54;;;;;;;37.92;23.80;;;;;;;;;;5085690;28;20112;-72
2024/03/11 02:14:21;;;;;;;37.65;24.83;;;;;;;;;;5067145;28;20064;-71
2024/03/11 02:16:47;;;;;;;37.35;24.50;;;;;;;;;;5081054;28;20054;-72
2024/03/11 02:19:17;;;;;;;39.42;24.95;;;;;;;;;;5067014;28;20903;-72
2024/03/11 02:21:46;;;;;;;38.58;24.58;;;;;;;;;;5069516;28;20097;-71
2024/03/11 02:24:14;;;;;;;37.88;24.35;;;;;;;;;;5073991;28;20504;-72
2024/03/11 02:26:48;;;;;;;39.55;25.75;;;;;;;;;;5079100;28;20139;-72
2024/03/11 02:29:16;;;;;;;38.47;25.27;;;;;;;;;;5082107;28;20141;-73
2024/03/11 02:31:47;;;;;;;37.63;24.63;;;;;;;;;;5083126;28;20048;-72
2024/03/11 02:34:14;;;;;;;35.20;24.35;;;;;;;;;;5075043;28;20049;-72
2024/03/11 02:36:43;;;;;;;39.53;26.43;;;;;;;;;;5081467;28;20108;-72
2024/03/11 02:39:10;;;;;;;39.63;25.65;;;;;;;;;;5055000;28;20469;-72
2024/03/11 02:41:37;;;;;;;37.60;24.85;;;;;;;;;;5076473;28;20132;-75
2024/03/11 02:44:03;;;;;;;39.38;25.42;;;;;;;;;;5075655;28;20048;-72
2024/03/11 02:46:30;;;;;;;38.97;25.65;;;;;;;;;;5054425;28;20048;-72
2024/03/11 02:49:00;;;;;;;39.10;25.02;;;;;;;;;;5058031;28;20036;-72
2024/03/11 02:51:26;;;;;;;40.55;25.70;;;;;;;;;;5078359;28;20463;-71
2024/03/11 02:53:53;;;;;;;38.63;25.45;;;;;;;;;;5062886;28;20049;-71
2024/03/11 02:56:19;;;;;;;35.35;23.98;;;;;;;;;;5077602;28;20047;-72
2024/03/11 02:58:46;;;;;;;39.40;24.58;;;;;;;;;;5080573;28;20113;-71
2024/03/11 03:01:16;;;;;;;40.08;25.65;;;;;;;;;;5064085;28;20159;-72
2024/03/11 03:03:43;;;;;;;38.92;26.08;;;;;;;;;;5076280;28;20171;-74
2024/03/11 03:06:09;;;;;;;39.50;25.90;;;;;;;;;;5065961;28;20101;-73
2024/03/11 03:08:35;;;;;;;39.95;25.98;;;;;;;;;;5082137;28;20063;-72
2024/03/11 03:11:03;;;;;;;38.35;26.17;;;;;;;;;;5068275;28;20539;-71
2024/03/11 03:13:29;;;;;;;40.33;26.13;;;;;;;;;;5066241;28;20405;-72
2024/03/11 03:15:56;;;;;;;39.72;26.00;;;;;;;;;;5067083;28;20104;-71
2024/03/11 03:18:23;;;;;;;40.97;26.15;;;;;;;;;;5092095;28;20060;-71
2024/03/11 03:20:50;;;;;;;39.97;26.35;;;;;;;;;;5078196;28;20105;-72
2024/03/11 03:23:17;;;;;;;41.35;25.90;;;;;;;;;;5068575;28;20101;-74
2024/03/11 03:25:43;;;;;;;39.25;25.13;;;;;;;;;;5069876;28;20812;-73
2024/03/11 03:28:10;;;;;;;38.70;25.67;;;;;;;;;;5086383;28;20048;-73
2024/03/11 03:30:37;;;;;;;40.53;26.75;;;;;;;;;;5082318;28;20056;-72
2024/03/11 03:33:04;;;;;;;41.50;26.92;;;;;;;;;;5079262;28;20658;-72
2024/03/11 03:35:31;;;;;;;45.95;27.08;;;;;;;;;;5097448;28;20104;-72
2024/03/11 03:37:57;;;;;;;40.97;26.63;;;;;;;;;;5085302;28;20495;-72
2024/03/11 03:40:24;;;;;;;39.92;26.73;;;;;;;;;;5093713;28;20048;-73
2024/03/11 03:42:50;;;;;;;43.30;26.52;;;;;;;;;;5077762;28;20078;-72
2024/03/11 03:45:18;;;;;;;40.67;27.02;;;;;;;;;;5074002;28;20135;-71
2024/03/11 03:47:45;;;;;;;39.33;26.65;;;;;;;;;;5083199;28;20784;-72
2024/03/11 03:50:12;;;;;;;43.08;26.48;;;;;;;;;;5077645;28;20052;-73
2024/03/11 03:52:40;;;;;;;41.85;28.33;;;;;;;;;;5072722;28;20051;-73
2024/03/11 03:55:11;;;;;;;38.50;24.92;;;;;;;;;;5075700;28;24972;-75
2024/03/11 03:57:38;;;;;;;43.10;27.73;;;;;;;;;;5056243;28;20060;-75
2024/03/11 04:00:16;;;;;;;42.35;26.10;;;;;;;;;;5062504;28;20060;-75
2024/03/11 04:02:44;;;;;;;41.15;26.60;;;;;;;;;;5088779;27;20217;-75
2024/03/11 04:05:11;;;;;;;43.10;27.10;;;;;;;;;;5066551;28;20437;-75
2024/03/11 04:07:40;;;;;;;42.15;25.75;;;;;;;;;;5079605;28;20052;-75
2024/03/11 04:10:11;;;;;;;43.50;26.67;;;;;;;;;;5072890;28;20521;-74
2024/03/11 04:12:38;;;;;;;42.20;27.88;;;;;;;;;;5072853;28;20050;-74
2024/03/11 04:15:04;;;;;;;40.90;27.33;;;;;;;;;;5076360;28;20122;-73
2024/03/11 04:17:32;;;;;;;43.35;27.10;;;;;;;;;;5088862;28;20101;-75
2024/03/11 04:19:59;;;;;;;41.28;26.58;;;;;;;;;;5087441;28;20123;-75
2024/03/11 04:22:26;;;;;;;45.08;28.17;;;;;;;;;;5079094;28;20055;-75
2024/03/11 04:24:53;;;;;;;42.88;28.17;;;;;;;;;;5070490;28;20151;-75
2024/03/11 04:27:19;;;;;;;43.17;27.15;;;;;;;;;;5073468;28;20102;-75
2024/03/11 04:29:45;;;;;;;45.40;28.75;;;;;;;;;;5064083;28;20098;-75
2024/03/11 04:32:12;;;;;;;41.58;27.10;;;;;;;;;;5067548;28;20772;-74
2024/03/11 04:34:39;;;;;;;44.78;28.35;;;;;;;;;;5067064;28;20051;-75
2024/03/11 04:37:06;;;;;;;43.40;27.92;;;;;;;;;;5068236;28;20576;-74
2024/03/11 04:39:33;;;;;;;43.42;28.15;;;;;;;;;;5077728;28;20101;-75
2024/03/11 04:41:59;;;;;;;44.22;28.85;;;;;;;;;;5079491;28;20059;-74
2024/03/11 04:44:26;;;;;;;42.75;27.40;;;;;;;;;;5064209;28;20055;-74
2024/03/11 04:46:54;;;;;;;45.55;28.48;;;;;;;;;;5084924;28;20059;-74
2024/03/11 04:49:21;;;;;;;43.25;27.17;;;;;;;;;;5081787;28;20101;-74
2024/03/11 04:51:47;;;;;;;45.63;28.15;;;;;;;;;;5097208;28;20088;-75
2024/03/11 04:54:16;;;;;;;47.42;29.13;;;;;;;;;;5075923;28;20063;-75
2024/03/11 04:56:43;;;;;;;42.33;28.15;;;;;;;;;;5063618;28;20109;-75
2024/03/11 04:59:11;;;;;;;39.03;25.70;;;;;;;;;;5100923;28;20055;-75
2024/03/11 05:01:38;;;;;;;40.88;27.63;;;;;;;;;;5080357;28;20508;-75
2024/03/11 05:04:04;;;;;;;41.03;26.77;;;;;;;;;;5067611;28;20122;-75
2024/03/11 05:06:32;;;;;;;43.40;27.30;;;;;;;;;;5077097;28;20471;-73
2024/03/11 05:08:58;;;;;;;45.30;28.33;;;;;;;;;;5086594;28;20481;-73
2024/03/11 05:11:25;;;;;;;41.65;27.13;;;;;;;;;;5062222;28;20044;-74
2024/03/11 05:13:51;;;;;;;42.42;27.95;;;;;;;;;;5084180;28;20044;-74
2024/03/11 05:16:21;;;;;;;38.90;26.88;;;;;;;;;;5092855;28;20101;-74
2024/03/11 05:18:47;;;;;;;41.60;27.33;;;;;;;;;;5096037;28;20132;-74
2024/03/11 05:21:13;;;;;;;42.38;29.13;;;;;;;;;;5074133;28;20412;-74
2024/03/11 05:23:40;;;;;;;41.45;27.38;;;;;;;;;;5073399;28;20056;-74
2024/03/11 05:26:07;;;;;;;42.00;26.17;;;;;;;;;;5086091;28;20040;-74
2024/03/11 05:28:33;;;;;;;40.28;26.55;;;;;;;;;;5089866;28;20052;-75
2024/03/11 05:31:01;;;;;;;39.23;25.67;;;;;;;;;;5066509;28;20170;-75
2024/03/11 05:33:29;;;;;;;45.30;27.90;;;;;;;;;;5073194;28;20338;-75
2024/03/11 05:35:55;;;;;;;43.60;27.50;;;;;;;;;;5078284;28;20046;-75
2024/03/11 05:38:22;;;;;;;40.08;26.27;;;;;;;;;;5090157;28;20051;-75
2024/03/11 05:40:49;;;;;;;41.40;27.45;;;;;;;;;;5083211;28;20054;-75
2024/03/11 05:43:17;;;;;;;41.05;26.70;;;;;;;;;;5075261;28;20079;-75
2024/03/11 05:45:44;;;;;;;41.75;27.85;;;;;;;;;;5090622;28;20052;-75
2024/03/11 05:48:10;;;;;;;44.28;29.38;;;;;;;;;;5086518;28;20047;-75
2024/03/11 05:50:38;;;;;;;42.22;26.77;;;;;;;;;;5073314;28;20044;-75
2024/03/11 05:53:05;;;;;;;41.33;27.25;;;;;;;;;;5064548;28;20055;-75
2024/03/11 05:55:34;;;;;;;41.97;27.73;;;;;;;;;;5070563;28;20063;-75
2024/03/11 05:58:08;;;;;;;45.83;28.35;;;;;;;;;;5080985;28;20044;-74
2024/03/11 06:00:42;;;;;;;40.35;27.33;;;;;;;;;;5094225;28;20047;-75
2024/03/11 06:03:10;;;;;;;41.00;26.13;;;;;;;;;;5090644;28;20101;-73
2024/03/11 06:05:36;;;;;;;41.90;26.35;;;;;;;;;;5056942;28;20072;-75
2024/03/11 06:08:03;;;;;;;41.78;27.48;;;;;;;;;;5081137;28;20066;-75
2024/03/11 06:10:29;;;;;;;43.75;28.45;;;;;;;;;;5069991;28;20058;-75
2024/03/11 06:12:57;;;;;;;43.65;27.45;;;;;;;;;;5079173;28;20139;-73
2024/03/11 06:15:27;;;;;;;41.42;27.73;;;;;;;;;;5073409;28;20583;-75
2024/03/11 06:17:53;;;;;;;37.95;24.50;;;;;;;;;;5108104;28;20058;-74
2024/03/11 06:20:20;;;;;;;42.42;27.58;;;;;;;;;;5095706;28;20048;-74
2024/03/11 06:22:46;;;;;;;42.50;28.25;;;;;;;;;;5080530;28;20056;-74
2024/03/11 06:25:15;;;;;;;43.10;27.13;;;;;;;;;;5085944;28;20466;-74
2024/03/11 06:27:43;;;;;;;40.22;26.80;;;;;;;;;;5091496;28;20044;-74
2024/03/11 06:30:10;;;;;;;40.03;26.75;;;;;;;;;;5084565;28;20051;-74
2024/03/11 06:32:37;;;;;;;39.58;26.52;;;;;;;;;;5085595;28;20048;-73
2024/03/11 06:35:05;;;;;;;41.70;26.80;;;;;;;;;;5059338;28;20139;-72
2024/03/11 06:37:32;;;;;;;42.10;28.02;;;;;;;;;;5081778;28;20043;-73
2024/03/11 06:39:58;;;;;;;45.47;28.20;;;;;;;;;;5064471;28;20403;-73
2024/03/11 06:42:24;;;;;;;42.28;28.60;;;;;;;;;;5097842;28;20496;-73
2024/03/11 06:44:52;;;;;;;44.42;28.60;;;;;;;;;;5073804;28;20437;-74
2024/03/11 06:47:18;;;;;;;44.78;29.88;;;;;;;;;;5075548;28;20050;-74
2024/03/11 06:49:44;;;;;;;41.33;27.60;;;;;;;;;;5062072;28;20135;-74
2024/03/11 06:52:11;;;;;;;43.33;28.23;;;;;;;;;;5081575;28;20530;-74
2024/03/11 06:54:37;;;;;;;44.17;27.73;;;;;;;;;;5082919;28;20047;-75
2024/03/11 06:57:06;;;;;;;41.80;27.75;;;;;;;;;;5083281;28;20095;-73
2024/03/11 06:59:33;;;;;;;43.08;27.70;;;;;;;;;;5081250;28;20417;-75
2024/03/11 07:02:00;;;;;;;44.13;27.85;;;;;;;;;;5075227;28;20048;-75
2024/03/11 07:04:26;;;;;;;42.72;27.00;;;;;;;;;;5084000;28;20070;-74
2024/03/11 07:06:53;;;;;;;43.20;27.73;;;;;;;;;;5083912;28;20055;-74
2024/03/11 07:09:19;;;;;;;44.22;28.73;;;;;;;;;;5063996;28;20609;-74
2024/03/11 07:11:45;;;;;;;43.03;28.10;;;;;;;;;;5083161;28;20473;-74
2024/03/11 07:14:13;;;;;;;43.17;27.95;;;;;;;;;;5085607;28;20044;-74
2024/03/11 07:16:42;;;;;;;44.50;28.42;;;;;;;;;;5059385;28;20411;-74
2024/03/11 07:19:09;;;;;;;45.70;27.85;;;;;;;;;;5079243;28;20059;-74
2024/03/11 07:21:37;;;;;;;46.20;28.58;;;;;;;;;;5084185;28;20671;-74
2024/03/11 07:24:05;;;;;;;42.67;28.38;;;;;;;;;;5087440;28;20052;-74
2024/03/11 07:26:31;;;;;;;43.50;27.65;;;;;;;;;;5068440;28;20070;-77
2024/03/11 07:28:58;;;;;;;42.47;27.75;;;;;;;;;;5078129;28;20052;-78
2024/03/11 07:31:24;;;;;;;43.03;27.00;;;;;;;;;;5061704;28;20063;-77
2024/03/11 07:33:51;;;;;;;44.90;29.98;;;;;;;;;;5073395;28;20374;-77
2024/03/11 07:36:18;;;;;;;44.35;28.17;;;;;;;;;;5068525;28;20044;-78
2024/03/11 07:38:46;;;;;;;41.35;27.58;;;;;;;;;;5062742;28;20054;-77
2024/03/11 07:41:13;;;;;;;45.15;28.73;;;;;;;;;;5085369;28;20823;-76
2024/03/11 07:43:40;;;;;;;43.00;28.50;;;;;;;;;;5066563;28;20124;-77
2024/03/11 07:46:06;;;;;;;42.55;26.70;;;;;;;;;;5066124;28;20048;-77
2024/03/11 07:48:33;;;;;;;43.60;27.40;;;;;;;;;;5084220;28;20781;-76
2024/03/11 07:51:00;;;;;;;42.47;28.05;;;;;;;;;;5084391;28;20112;-77
2024/03/11 07:53:26;;;;;;;42.00;26.73;;;;;;;;;;5083913;28;20101;-77
2024/03/11 07:55:53;;;;;;;40.95;26.38;;;;;;;;;;5074028;28;20066;-78
2024/03/11 07:58:19;;;;;;;41.17;26.27;;;;;;;;;;5083105;28;20104;-77
2024/03/11 08:00:46;;;;;;;41.78;25.58;;;;;;;;;;5059810;28;20047;-77
2024/03/11 08:03:14;;;;;;;44.28;27.65;;;;;;;;;;5082766;28;20048;-77
2024/03/11 08:05:40;;;;;;;37.08;25.13;;;;;;;;;;5068391;28;20074;-76
2024/03/11 08:08:08;;;;;;;37.60;25.35;;;;;;;;;;5063948;28;20040;-78
2024/03/11 08:10:35;;;;;;;37.28;24.27;;;;;;;;;;5069493;28;20498;-77
2024/03/11 08:13:01;;;;;;;38.80;25.13;;;;;;;;;;5077057;28;20131;-75
2024/03/11 08:15:28;;;;;;;35.28;23.50;;;;;;;;;;5070647;28;20057;-77
2024/03/11 08:17:55;;;;;;;35.35;23.88;;;;;;;;;;5082354;28;20044;-76
2024/03/11 08:20:23;;;;;;;33.55;22.67;;;;;;;;;;5068940;28;20058;-77
2024/03/11 08:22:56;;;;;;;34.15;22.38;;;;;;;;;;5086251;28;20097;-77
2024/03/11 08:25:23;;;;;;;31.25;21.73;;;;;;;;;;5079731;28;20059;-77
2024/03/11 08:27:51;;;;;;;34.13;22.38;;;;;;;;;;5064895;28;20044;-77
2024/03/11 08:30:18;;;;;;;;;;;;;;;;;;5061239;28;20060;-77
2024/03/11 08:32:48;;;;;;;33.03;21.42;;;;;;;;;;5085625;28;19932;-77
2024/03/11 08:35:14;;;;;;;32.97;22.73;;;;;;;;;;5062299;28;20044;-78
2024/03/11 08:37:41;;;;;;;32.78;22.27;;;;;;;;;;5071794;28;20063;-76
2024/03/11 08:40:08;;;;;;;31.92;22.33;;;;;;;;;;5062378;28;20032;-76
2024/03/11 08:42:35;;;;;;;36.50;23.67;;;;;;;;;;5076843;28;20270;-77
2024/03/11 08:45:03;;;;;;;34.70;23.02;;;;;;;;;;5087817;28;20044;-77
2024/03/11 08:47:30;;;;;;;31.88;22.17;;;;;;;;;;5082737;28;20109;-76
2024/03/11 08:49:58;;;;;;;38.22;24.65;;;;;;;;;;5070234;28;20052;-77
2024/03/11 08:52:24;;;;;;;37.97;24.42;;;;;;;;;;5089524;28;20128;-78
2024/03/11 08:54:51;;;;;;;37.08;24.40;;;;;;;;;;5062145;28;20132;-76
2024/03/11 08:57:17;;;;;;;37.72;23.83;;;;;;;;;;5069906;28;20135;-77
2024/03/11 08:59:45;;;;;;;36.63;24.95;;;;;;;;;;5085116;28;20052;-77
2024/03/11 09:02:14;;;;;;;39.50;25.60;;;;;;;;;;5072312;28;20060;-77
2024/03/11 09:04:46;;;;;;;39.60;25.63;;;;;;;;;;5085092;28;20052;-77
2024/03/11 09:07:13;;;;;;;42.58;25.10;;;;;;;;;;5076869;28;20051;-77
2024/03/11 09:09:40;;;;;;;42.22;27.02;;;;;;;;;;5068862;28;20140;-77
2024/03/11 09:12:06;;;;;;;46.00;27.50;;;;;;;;;;5064277;28;20059;-77
2024/03/11 09:14:33;;;;;;;46.25;28.02;;;;;;;;;;5090428;28;20055;-77
2024/03/11 09:17:00;;;;;;;42.88;27.40;;;;;;;;;;5084772;28;20040;-75
2024/03/11 09:19:30;;;;;;;46.88;28.05;;;;;;;;;;5103918;28;20051;-76
2024/03/11 09:21:57;;;;;;;45.55;27.60;;;;;;;;;;5093042;28;21002;-76
2024/03/11 09:24:24;;;;;;;46.70;27.50;;;;;;;;;;5064809;28;20048;-77
2024/03/11 09:26:51;;;;;;;44.67;27.02;;;;;;;;;;5097832;28;20104;-77
2024/03/11 09:29:19;;;;;;;45.35;28.92;;;;;;;;;;5088315;28;20048;-77
2024/03/11 09:31:46;;;;;;;46.28;27.55;;;;;;;;;;5079625;28;20578;-77
2024/03/11 09:34:13;;;;;;;43.08;26.70;;;;;;;;;;5082279;28;20072;-76
2024/03/11 09:36:40;;;;;;;44.38;26.42;;;;;;;;;;5088997;28;20047;-76
2024/03/11 09:39:06;;;;;;;44.25;26.02;;;;;;;;;;5068633;28;20048;-76
2024/03/11 09:41:37;;;;;;;48.58;28.55;;;;;;;;;;5084369;28;20131;-75
2024/03/11 09:44:04;;;;;;;43.95;26.92;;;;;;;;;;5103192;28;20066;-77
2024/03/11 09:46:31;;;;;;;42.95;27.20;;;;;;;;;;5084103;28;20083;-73
2024/03/11 09:48:58;;;;;;;47.08;27.55;;;;;;;;;;5089862;28;20055;-73
2024/03/11 09:51:24;;;;;;;43.15;27.83;;;;;;;;;;5063990;28;20040;-74
2024/03/11 09:53:54;;;;;;;44.58;27.15;;;;;;;;;;5072271;28;20556;-74
2024/03/11 09:56:21;;;;;;;44.08;26.10;;;;;;;;;;5086552;28;20664;-73
2024/03/11 09:58:50;;;;;;;45.00;27.42;;;;;;;;;;5084991;28;20036;-73
2024/03/11 10:01:17;;;;;;;42.67;25.88;;;;;;;;;;5069255;28;20099;-73
2024/03/11 10:03:44;;;;;;;42.28;26.27;;;;;;;;;;5066017;28;20109;-73
2024/03/11 10:06:11;;;;;;;42.35;26.17;;;;;;;;;;5064816;28;20046;-74
2024/03/11 10:08:39;;;;;;;41.92;26.67;;;;;;;;;;5081030;28;20126;-74
2024/03/11 10:11:09;;;;;;;42.88;27.23;;;;;;;;;;5081180;28;20051;-73
2024/03/11 10:13:36;;;;;;;41.92;25.45;;;;;;;;;;5089635;28;20093;-75
2024/03/11 10:16:14;;;;;;;41.83;27.40;;;;;;;;;;5084844;28;20040;-73
2024/03/11 10:18:48;;;;;;;41.97;26.63;;;;;;;;;;5091694;28;20119;-74
2024/03/11 10:21:19;;;;;;;44.70;26.20;;;;;;;;;;5080029;28;20079;-72
2024/03/11 10:23:48;;;;;;;44.70;26.52;;;;;;;;;;5087645;28;20060;-74
2024/03/11 10:26:18;;;;;;;44.60;25.77;;;;;;;;;;5079572;28;20048;-73
2024/03/11 10:28:47;;;;;;;40.60;27.05;;;;;;;;;;5083120;28;20055;-73
2024/03/11 10:31:27;;;;;;;44.15;26.20;;;;;;;;;;5089011;28;20048;-73
2024/03/11 10:34:03;;;;;;;43.20;27.27;;;;;;;;;;5081941;28;20102;-73
2024/03/11 10:36:30;;;;;;;41.28;25.88;;;;;;;;;;5081040;28;20083;-73
2024/03/11 10:39:17;;;;;;;42.20;26.02;;;;;;;;;;5083103;28;20048;-73
2024/03/11 10:41:45;;;;;;;39.30;25.27;;;;;;;;;;5083708;28;20139;-73
2024/03/11 10:44:15;;;;;;;42.77;27.13;;;;;;;;;;5061574;28;20123;-74
2024/03/11 10:46:44;;;;;;;40.38;26.90;;;;;;;;;;5080304;28;20113;-72
2024/03/11 10:49:12;;;;;;;44.67;27.33;;;;;;;;;;5073943;28;20135;-74
2024/03/11 10:51:44;;;;;;;41.72;25.90;;;;;;;;;;5075612;28;20053;-73
2024/03/11 10:54:12;;;;;;;43.50;25.98;;;;;;;;;;5095291;28;20610;-74
2024/03/11 10:56:40;;;;;;;41.25;27.08;;;;;;;;;;5064898;28;20048;-77
2024/03/11 10:59:07;;;;;;;44.95;25.92;;;;;;;;;;5071020;28;20717;-77
2024/03/11 11:01:34;;;;;;;44.88;26.65;;;;;;;;;;5070169;28;20094;-76
2024/03/11 11:04:05;;;;;;;44.10;27.48;;;;;;;;;;5067061;28;20052;-77
2024/03/11 11:06:33;;;;;;;48.65;27.63;;;;;;;;;;5068029;28;20059;-77
2024/03/11 11:09:10;;;;;;;42.33;25.92;;;;;;;;;;5076042;28;20051;-77
2024/03/11 11:11:41;;;;;;;45.13;27.90;;;;;;;;;;5085842;28;20140;-76
2024/03/11 11:14:11;;;;;;;45.22;26.80;;;;;;;;;;5071762;28;20044;-76
2024/03/11 11:16:38;;;;;;;44.20;27.15;;;;;;;;;;5087637;28;20062;-77
2024/03/11 11:19:05;;;;;;;41.60;26.25;;;;;;;;;;5061455;28;20110;-77
2024/03/11 11:21:31;;;;;;;42.50;26.55;;;;;;;;;;5078928;28;20048;-77
2024/03/11 11:24:18;;;;;;;42.30;27.08;;;;;;;;;;5063837;28;20043;-78
2024/03/11 11:26:45;;;;;;;42.90;25.73;;;;;;;;;;5084258;28;20054;-77
2024/03/11 11:29:11;;;;;;;44.30;26.65;;;;;;;;;;5069739;28;20056;-76
2024/03/11 11:31:38;;;;;;;43.15;26.80;;;;;;;;;;5064285;28;20105;-75
2024/03/11 11:34:07;;;;;;;43.50;25.98;;;;;;;;;;5086441;28;20055;-78
2024/03/11 11:36:36;;;;;;;43.88;25.80;;;;;;;;;;5060673;28;20138;-77
2024/03/11 11:39:11;;;;;;;43.35;26.63;;;;;;;;;;5075001;28;20044;-77
2024/03/11 11:41:39;;;;;;;37.92;25.33;;;;;;;;;;5068221;28;20052;-77
2024/03/11 11:44:07;;;;;;;39.67;25.10;;;;;;;;;;5080846;28;20089;-77
2024/03/11 11:46:40;;;;;;;41.70;26.42;;;;;;;;;;5065619;28;20443;-76
2024/03/11 11:49:14;;;;;;;40.50;25.02;;;;;;;;;;5076558;28;20052;-78
2024/03/11 11:51:40;;;;;;;40.72;24.67;;;;;;;;;;5067478;28;20047;-76
2024/03/11 11:54:25;;;;;;;35.90;23.40;;;;;;;;;;5073395;28;20097;-77
2024/03/11 11:57:17;;;;;;;38.05;25.00;;;;;;;;;;5080085;28;20134;-77
2024/03/11 11:59:45;;;;;;;41.53;24.88;;;;;;;;;;5079211;28;20101;-78
2024/03/11 12:02:19;;;;;;;43.30;26.45;;;;;;;;;;5086537;28;20082;-78
2024/03/11 12:04:49;;;;;;;38.63;24.33;;;;;;;;;;5087068;28;20432;-79
2024/03/11 12:07:22;;;;;;;42.53;24.77;;;;;;;;;;5081350;28;20138;-78
2024/03/11 12:09:59;;;;;;;44.72;24.42;;;;;;;;;;5087125;28;20055;-78
2024/03/11 12:12:43;;;;;;;40.60;24.83;;;;;;;;;;5078001;28;20051;-79
2024/03/11 12:15:19;;;;;;;40.05;25.30;;;;;;;;;;5084244;28;20048;-78
2024/03/11 12:18:00;;;;;;;38.13;24.13;;;;;;;;;;5093332;28;20048;-79
2024/03/11 12:22:57;;;;;;;40.05;25.05;;;;;;;;;;5075730;28;20051;-78
2024/03/11 12:25:24;;;;;;;39.13;24.70;;;;;;;;;;5074430;28;20059;-76
2024/03/11 12:27:52;;;;;;;40.10;25.05;;;;;;;;;;5082449;28;20295;-78
2024/03/11 12:30:27;;;;;;;39.53;24.65;;;;;;;;;;5077749;28;20067;-78
2024/03/11 12:32:57;;;;;;;37.67;24.23;;;;;;;;;;5086535;28;20044;-78
2024/03/11 12:35:27;;;;;;;44.03;25.77;;;;;;;;;;5062428;28;20139;-78
2024/03/11 12:37:54;;;;;;;40.42;25.77;;;;;;;;;;5085416;28;20109;-76
2024/03/11 12:40:21;;;;;;;40.97;25.08;;;;;;;;;;5079143;28;20472;-76
2024/03/11 12:42:54;;;;;;;40.40;25.33;;;;;;;;;;5082283;28;20157;-77
2024/03/11 12:45:41;;;;;;;42.10;25.05;;;;;;;;;;5058571;28;20059;-78
2024/03/11 12:48:08;;;;;;;40.17;24.80;;;;;;;;;;5077445;28;20158;-78
2024/03/11 12:50:40;;;;;;;40.20;25.15;;;;;;;;;;5066935;28;21866;-77
2024/03/11 12:53:07;;;;;;;37.63;24.23;;;;;;;;;;5078840;28;20435;-78
2024/03/11 12:55:34;;;;;;;42.05;25.77;;;;;;;;;;5083952;28;20116;-77
2024/03/11 12:58:04;;;;;;;39.20;23.75;;;;;;;;;;5060664;28;20055;-77
2024/03/11 13:00:30;;;;;;;42.08;24.80;;;;;;;;;;5085511;28;20081;-77
2024/03/11 13:03:11;;;;;;;39.85;25.48;;;;;;;;;;5075629;28;20510;-78
2024/03/11 13:05:51;;;;;;;41.78;24.73;;;;;;;;;;5076732;28;20653;-77
2024/03/11 13:08:21;;;;;;;43.63;25.27;;;;;;;;;;5052115;28;20528;-76
2024/03/11 13:10:50;;;;;;;40.88;24.80;;;;;;;;;;5077966;28;20044;-77
2024/03/11 13:13:19;;;;;;;42.83;24.52;;;;;;;;;;5070091;28;20059;-77
2024/03/11 13:15:50;;;;;;;43.13;26.50;;;;;;;;;;5076938;28;20438;-74
2024/03/11 13:18:18;;;;;;;40.70;25.05;;;;;;;;;;5099387;28;20113;-73
2024/03/11 13:20:45;;;;;;;37.95;24.10;;;;;;;;;;5070929;28;20093;-75
2024/03/11 13:23:11;;;;;;;45.05;25.27;;;;;;;;;;5058364;28;20170;-74
2024/03/11 13:25:41;;;;;;;42.65;24.95;;;;;;;;;;5072400;28;20052;-74
2024/03/11 13:28:11;;;;;;;39.67;24.52;;;;;;;;;;5096621;28;20048;-74
2024/03/11 13:30:44;;;;;;;38.20;23.65;;;;;;;;;;5069587;28;20043;-74
2024/03/11 13:33:13;;;;;;;39.47;24.85;;;;;;;;;;5064524;28;20102;-73
2024/03/11 13:35:40;;;;;;;39.47;23.60;;;;;;;;;;5089146;28;20093;-73
2024/03/11 13:38:10;;;;;;;39.15;24.58;;;;;;;;;;5087983;28;20488;-73
2024/03/11 13:40:36;;;;;;;43.20;24.95;;;;;;;;;;5079712;28;20052;-73
2024/03/11 13:43:03;;;;;;;58.38;31.80;;;;;;;;;;5071555;28;20044;-73
2024/03/11 13:45:30;;;;;;;53.40;28.63;;;;;;;;;;5082222;28;20054;-73
2024/03/11 13:47:56;;;;;;;52.67;30.73;;;;;;;;;;5084771;28;20204;-74
2024/03/11 13:50:26;;;;;;;46.85;27.20;;;;;;;;;;5085882;28;20044;-73
2024/03/11 13:52:53;;;;;;;40.35;25.17;;;;;;;;;;5098232;28;20105;-73
2024/03/11 13:55:19;;;;;;;42.92;25.42;;;;;;;;;;5065776;28;20809;-73
2024/03/11 13:57:46;;;;;;;41.42;24.77;;;;;;;;;;5072517;28;20071;-73
2024/03/11 14:00:17;;;;;;;42.00;23.63;;;;;;;;;;5081830;28;20058;-73
2024/03/11 14:02:45;;;;;;;43.67;24.60;;;;;;;;;;5083594;28;20089;-73
2024/03/11 14:05:14;;;;;;;40.22;23.40;;;;;;;;;;5088965;28;20149;-72
2024/03/11 14:07:44;;;;;;;41.92;24.58;;;;;;;;;;5086915;28;20101;-74
2024/03/11 14:10:11;;;;;;;41.67;25.65;;;;;;;;;;5086975;28;20044;-72
2024/03/11 14:12:38;;;;;;;44.05;24.88;;;;;;;;;;5089478;28;20135;-73
2024/03/11 14:15:10;;;;;;;37.35;23.60;;;;;;;;;;5065683;28;20569;-73
2024/03/11 14:17:42;;;;;;;41.28;24.38;;;;;;;;;;5095560;28;20444;-73
2024/03/11 14:20:20;;;;;;;47.13;27.38;;;;;;;;;;5072671;28;20052;-73
2024/03/11 14:22:48;;;;;;;42.50;25.92;;;;;;;;;;5077522;28;20104;-73
2024/03/11 14:25:16;;;;;;;38.60;24.58;;;;;;;;;;5095493;28;20185;-73
2024/03/11 14:27:44;;;;;;;;;;;;;;;;;;5088512;28;20046;-73